KCOS/COS METAR and TAF weather

Enter ICAO airport designator
Station Type Date Time Source
KCOS METAR 2021/09/25 10:54 UTC NOAA

KCOS 251054Z 00000KT 10SM CLR 09/02 A3030 RMK AO2 SLP194 T00890022


Station Type Date Time Source
KCOS Decoded METAR 2021/09/25 10:54 UTC NOAA

COLORADO SPRINGS MUNI, CO, United States (KCOS) 38-49N 104-43W 1856M
Sep 25, 2021 - 06:54 AM EDT / 2021.09.25 1054 UTC
Wind: Calm:0
Visibility: 10 mile(s):0
Sky conditions: clear
Temperature: 48.0 F (8.9 C)
Dew Point: 36.0 F (2.2 C)
Relative Humidity: 62%
Pressure (altimeter): 30.3 in. Hg (1026 hPa)
ob: KCOS 251054Z 00000KT 10SM CLR 09/02 A3030 RMK AO2 SLP194 T00890022
cycle: 11

Station Type Date Time Source
KCOS TAF 2021/09/25 06:24 UTC NOAA

TAF KCOS 250522Z 2506/2606 19009KT P6SM SKC
FM250900 03005KT P6SM SKC
FM251900 16014KT P6SM SKC
FM260100 10007KT P6SM SKC

Example: see airport list